Time;durP1;ratioP1;P1;durP2;ratioP2;P2;SDS_P1;SDS_P2;PMS_P1;PMS_P2;Temp;Humidity;BMP_temperature;BMP_pressure;BME280_temperature;BME280_humidity;BME280_pressure;Samples;Min_cycle;Max_cycle;Signal;HPM_P1;HPM_P2
2023/09/23 00:01:28;;;;;;;5.82;5.07;;;;;;;10.55;100.00;99879.34;5020715;28;20084;-77
2023/09/23 00:03:53;;;;;;;7.55;5.00;;;;;;;10.54;100.00;99871.53;5023720;28;20116;-76
2023/09/23 00:06:21;;;;;;;7.13;5.20;;;;;;;10.44;100.00;99858.47;5026282;28;20037;-75
2023/09/23 00:08:47;;;;;;;4.80;4.22;;;;;;;10.50;100.00;99872.91;5022757;28;20032;-77
2023/09/23 00:11:12;;;;;;;5.25;4.75;;;;;;;10.47;100.00;99863.44;5027557;28;20463;-75
2023/09/23 00:13:37;;;;;;;8.27;5.47;;;;;;;10.40;100.00;99856.34;5026267;28;20025;-75
2023/09/23 00:16:14;;;;;;;8.83;6.07;;;;;;;10.42;100.00;99860.50;5022336;28;20120;-75
2023/09/23 00:18:40;;;;;;;8.27;5.18;;;;;;;10.41;100.00;99864.16;5020995;28;20494;-79
2023/09/23 00:21:07;;;;;;;6.28;5.65;;;;;;;10.35;100.00;99867.56;5028763;28;20059;-77
2023/09/23 00:23:33;;;;;;;9.63;4.82;;;;;;;10.35;100.00;99868.38;5024826;28;20677;-75
2023/09/23 00:26:00;;;;;;;7.70;5.45;;;;;;;10.30;100.00;99856.59;5020964;28;20037;-76
2023/09/23 00:28:26;;;;;;;6.03;4.95;;;;;;;10.32;100.00;99867.91;5017065;28;20026;-77
2023/09/23 00:30:53;;;;;;;6.07;5.37;;;;;;;10.34;100.00;99879.22;5010876;28;20789;-75
2023/09/23 00:33:18;;;;;;;7.88;5.57;;;;;;;10.23;100.00;99867.16;5022078;28;20108;-76
2023/09/23 00:35:44;;;;;;;7.82;6.47;;;;;;;10.26;100.00;99871.28;5021689;28;20524;-76
2023/09/23 00:38:12;;;;;;;8.70;6.32;;;;;;;10.25;100.00;99874.97;5027401;28;20116;-76
2023/09/23 00:40:38;;;;;;;8.05;4.95;;;;;;;10.15;100.00;99860.03;5028651;28;20037;-74
2023/09/23 00:43:12;;;;;;;7.18;5.95;;;;;;;10.12;100.00;99865.75;5025015;28;20415;-77
2023/09/23 00:45:48;;;;;;;8.23;5.03;;;;;;;10.18;100.00;99880.19;4986123;28;1088750;-75
2023/09/23 00:48:18;;;;;;;5.88;5.28;;;;;;;10.10;100.00;99866.94;5028549;28;20057;-75
2023/09/23 00:50:47;;;;;;;7.22;5.80;;;;;;;10.08;100.00;99858.28;5024499;28;20500;-76
2023/09/23 00:53:12;;;;;;;6.53;5.85;;;;;;;10.10;100.00;99862.44;5025049;28;20050;-75
2023/09/23 00:55:42;;;;;;;6.05;5.43;;;;;;;10.14;100.00;99873.56;5022388;28;20068;-77
2023/09/23 00:58:14;;;;;;;7.15;6.38;;;;;;;10.23;100.00;99898.31;5024088;28;20477;-75
2023/09/23 01:00:41;;;;;;;7.53;6.47;;;;;;;10.29;100.00;99908.31;5018375;28;20059;-76
2023/09/23 01:03:07;;;;;;;10.02;6.90;;;;;;;10.32;100.00;99915.94;5013974;28;20029;-75
2023/09/23 01:05:34;;;;;;;9.00;7.03;;;;;;;10.39;100.00;99919.53;5021377;28;20079;-77
2023/09/23 01:08:17;;;;;;;8.27;6.35;;;;;;;10.51;100.00;99923.44;5023913;28;20058;-76
2023/09/23 01:10:43;;;;;;;8.32;6.93;;;;;;;10.52;100.00;99926.94;5025306;28;20044;-74
2023/09/23 01:13:08;;;;;;;;;;;;;;;10.62;100.00;99934.66;5026052;28;20083;-76
2023/09/23 01:15:35;;;;;;;;;;;;;;;10.68;100.00;99947.31;5014784;28;19913;-76
2023/09/23 01:18:04;;;;;;;7.25;6.53;;;;;;;10.70;100.00;99942.59;5026031;28;20470;-74
2023/09/23 01:20:30;;;;;;;9.45;6.32;;;;;;;10.77;100.00;99951.53;5026791;28;20026;-77
2023/09/23 01:22:55;;;;;;;7.15;6.45;;;;;;;10.81;100.00;99941.31;5030952;28;20037;-77
2023/09/23 01:25:25;;;;;;;7.73;6.77;;;;;;;10.88;100.00;99943.06;5022884;28;20037;-76
2023/09/23 01:27:51;;;;;;;8.73;7.18;;;;;;;10.90;100.00;99949.03;5011544;28;20044;-75
2023/09/23 01:30:20;;;;;;;9.25;7.43;;;;;;;10.98;100.00;99958.81;5027814;28;20025;-75
2023/09/23 01:32:49;;;;;;;8.95;7.35;;;;;;;11.01;100.00;99954.97;5011924;28;20124;-77
2023/09/23 01:35:20;;;;;;;8.60;6.90;;;;;;;11.07;100.00;99951.53;5029998;28;20373;-75
2023/09/23 01:37:47;;;;;;;7.82;6.68;;;;;;;11.12;100.00;99971.34;5032245;28;20475;-77
2023/09/23 01:40:19;;;;;;;9.68;6.57;;;;;;;11.11;100.00;99967.00;5032430;28;20021;-74
2023/09/23 01:42:48;;;;;;;9.98;6.75;;;;;;;11.33;100.00;99983.97;5033381;28;20033;-75
2023/09/23 01:45:15;;;;;;;7.50;6.60;;;;;;;11.40;100.00;99976.84;5046462;28;20044;-77
2023/09/23 01:47:41;;;;;;;8.65;6.68;;;;;;;11.51;100.00;99985.41;5032587;28;20029;-75
2023/09/23 01:50:09;;;;;;;8.30;6.82;;;;;;;11.46;100.00;99958.41;5030786;28;20030;-74
2023/09/23 01:52:36;;;;;;;8.18;7.38;;;;;;;11.52;100.00;99962.97;5047547;28;20037;-76
2023/09/23 01:55:03;;;;;;;9.02;7.72;;;;;;;11.60;100.00;99976.25;5033350;28;20071;-76
2023/09/23 01:57:30;;;;;;;6.50;5.88;;;;;;;11.60;100.00;99965.56;5031044;28;20034;-75
2023/09/23 01:59:55;;;;;;;9.07;7.53;;;;;;;11.67;100.00;99977.16;5030722;28;20017;-77
2023/09/23 02:02:20;;;;;;;12.40;9.33;;;;;;;11.63;100.00;99959.81;5028764;28;20128;-77
2023/09/23 02:04:47;;;;;;;10.35;7.97;;;;;;;11.71;100.00;99957.06;5046748;28;20048;-77
2023/09/23 02:07:13;;;;;;;9.93;7.40;;;;;;;11.86;100.00;99975.72;5030415;28;20029;-76
2023/09/23 02:09:39;;;;;;;9.02;7.63;;;;;;;11.93;100.00;99967.78;5022491;28;20496;-75
2023/09/23 02:12:04;;;;;;;12.50;9.80;;;;;;;11.96;100.00;99976.28;5031668;28;20041;-77
2023/09/23 02:14:30;;;;;;;7.87;6.77;;;;;;;11.94;100.00;99967.63;5030443;28;20048;-76
2023/09/23 02:16:57;;;;;;;11.57;8.20;;;;;;;11.94;100.00;99974.78;5037996;28;20032;-76
2023/09/23 02:19:24;;;;;;;8.77;7.53;;;;;;;12.01;100.00;99989.06;5029616;28;20579;-76
2023/09/23 02:21:51;;;;;;;9.68;6.65;;;;;;;12.00;100.00;99987.41;5029959;28;20404;-76
2023/09/23 02:24:18;;;;;;;11.15;7.75;;;;;;;12.00;100.00;99993.59;5029537;28;20033;-75
2023/09/23 02:26:47;;;;;;;6.70;5.60;;;;;;;11.98;100.00;99998.28;5027377;28;20036;-76
2023/09/23 02:29:16;;;;;;;7.00;6.32;;;;;;;12.04;100.00;100010.94;5030908;28;20356;-76
2023/09/23 02:31:47;;;;;;;7.50;6.53;;;;;;;12.11;100.00;100024.38;5020734;28;20086;-77
2023/09/23 02:34:16;;;;;;;8.57;7.03;;;;;;;12.13;100.00;100054.44;5028141;28;20037;-74
2023/09/23 02:36:43;;;;;;;9.68;8.00;;;;;;;11.93;100.00;100064.91;5020584;28;20056;-74
2023/09/23 02:39:14;;;;;;;12.13;8.88;;;;;;;12.04;100.00;100063.59;5027821;28;20056;-77
2023/09/23 02:41:40;;;;;;;12.35;9.27;;;;;;;12.07;100.00;100057.88;5027693;28;20175;-75
2023/09/23 02:44:05;;;;;;;12.63;10.53;;;;;;;12.00;100.00;100062.31;5025794;28;20559;-77
2023/09/23 02:46:30;;;;;;;14.53;12.00;;;;;;;12.08;100.00;100077.41;5027518;28;20384;-77
2023/09/23 02:48:56;;;;;;;20.27;13.63;;;;;;;11.97;100.00;100071.56;5028078;28;20032;-76
2023/09/23 02:51:23;;;;;;;21.10;15.18;;;;;;;12.12;100.00;100078.72;5028997;28;20391;-76
2023/09/23 02:53:48;;;;;;;;;;;;;;;12.19;100.00;100085.78;5028894;28;20116;-79
2023/09/23 02:56:15;;;;;;;22.00;14.45;;;;;;;12.14;100.00;100066.78;5025792;28;20003;-77
2023/09/23 02:58:43;;;;;;;24.33;15.02;;;;;;;12.29;100.00;100076.63;5009677;28;20021;-79
2023/09/23 03:01:14;;;;;;;27.23;18.08;;;;;;;12.22;100.00;100077.41;5026070;28;20430;-79
2023/09/23 03:03:40;;;;;;;23.55;17.00;;;;;;;12.15;100.00;100092.56;5026003;28;20420;-78
2023/09/23 03:06:08;;;;;;;26.25;18.92;;;;;;;12.18;100.00;100092.16;5028473;28;20036;-78
2023/09/23 03:08:37;;;;;;;24.87;18.50;;;;;;;12.18;100.00;100097.53;5013745;28;20025;-79
2023/09/23 03:11:06;;;;;;;29.90;19.42;;;;;;;12.31;100.00;100104.84;5013395;28;20057;-77
2023/09/23 03:13:32;;;;;;;33.17;18.98;;;;;;;12.39;100.00;100107.44;5030320;28;20061;-78
2023/09/23 03:16:06;;;;;;;30.92;19.98;;;;;;;12.36;100.00;100115.00;5030264;28;20120;-78
2023/09/23 03:18:38;;;;;;;32.83;22.27;;;;;;;12.37;100.00;100114.00;5030292;28;20503;-79
2023/09/23 03:21:08;;;;;;;33.83;22.05;;;;;;;12.34;100.00;100125.91;5030611;28;20033;-78
2023/09/23 03:23:39;;;;;;;43.58;25.20;;;;;;;12.41;100.00;100117.97;5030349;28;20025;-78
2023/09/23 03:26:09;;;;;;;42.28;25.52;;;;;;;12.48;100.00;100096.59;5031635;28;20059;-78
2023/09/23 03:28:39;;;;;;;45.03;24.05;;;;;;;12.55;100.00;100098.31;5030893;28;20033;-79
2023/09/23 03:31:08;;;;;;;35.40;24.33;;;;;;;12.60;100.00;100093.22;5031087;28;20021;-78
2023/09/23 03:33:35;;;;;;;38.08;23.95;;;;;;;12.61;100.00;100086.84;5030869;28;20581;-79
2023/09/23 03:36:01;;;;;;;79.82;32.30;;;;;;;12.60;100.00;100079.84;5025296;28;20030;-78
2023/09/23 03:38:28;;;;;;;43.10;26.67;;;;;;;12.62;100.00;100071.63;5004317;28;20076;-76
2023/09/23 03:41:02;;;;;;;84.65;31.77;;;;;;;12.50;100.00;100067.78;5008411;28;20048;-79
2023/09/23 03:43:28;;;;;;;43.22;25.00;;;;;;;12.55;100.00;100076.91;5040410;28;20044;-79
2023/09/23 03:45:54;;;;;;;;;;;;;;;12.58;100.00;100086.41;5012079;28;20084;-77
2023/09/23 03:48:19;;;;;;;41.28;24.90;;;;;;;12.56;100.00;100105.31;5023828;28;20419;-79
2023/09/23 03:50:50;;;;;;;49.92;28.15;;;;;;;12.57;100.00;100127.56;5024461;28;20137;-78
2023/09/23 03:53:16;;;;;;;45.97;27.42;;;;;;;12.56;100.00;100125.94;5022150;28;20316;-79
2023/09/23 03:55:42;;;;;;;45.88;27.50;;;;;;;12.57;100.00;100106.16;5028757;28;20439;-79
2023/09/23 03:58:07;;;;;;;46.07;26.70;;;;;;;12.52;100.00;100103.22;5024113;28;20044;-78
2023/09/23 04:00:36;;;;;;;58.67;29.07;;;;;;;12.47;100.00;100101.13;5025359;28;20116;-78
2023/09/23 04:03:01;;;;;;;55.20;28.92;;;;;;;12.61;100.00;100123.50;5025728;28;20048;-78
2023/09/23 04:05:28;;;;;;;50.13;29.13;;;;;;;12.70;100.00;100116.19;5028416;28;20033;-78
2023/09/23 04:07:53;;;;;;;58.28;29.08;;;;;;;12.61;100.00;100110.09;5028341;28;20042;-78
2023/09/23 04:10:25;;;;;;;48.17;25.73;;;;;;;12.67;100.00;100128.09;5021647;28;20127;-79
2023/09/23 04:12:51;;;;;;;46.78;25.42;;;;;;;12.62;100.00;100128.69;5029316;28;20276;-78
2023/09/23 04:15:19;;;;;;;;;;;;;;;12.63;100.00;100142.88;5011631;28;20152;-79
2023/09/23 04:17:44;;;;;;;41.10;22.75;;;;;;;12.70;100.00;100142.97;5029013;28;19911;-79
2023/09/23 04:20:10;;;;;;;45.15;24.50;;;;;;;12.64;100.00;100140.03;5024742;28;20026;-80
2023/09/23 04:22:37;;;;;;;42.10;23.20;;;;;;;12.64;100.00;100129.31;5027293;28;20233;-79
2023/09/23 04:25:06;;;;;;;47.25;24.77;;;;;;;12.64;100.00;100136.50;5028249;28;20508;-79
2023/09/23 04:27:33;;;;;;;41.75;22.50;;;;;;;12.58;100.00;100143.47;5011160;28;20570;-79
2023/09/23 04:30:00;;;;;;;45.70;23.05;;;;;;;12.57;100.00;100131.09;5027386;28;20033;-79
2023/09/23 04:32:26;;;;;;;67.00;28.08;;;;;;;12.65;100.00;100130.97;5026717;28;20021;-80
2023/09/23 04:34:52;;;;;;;56.13;24.83;;;;;;;12.64;100.00;100134.66;5021697;28;20495;-79
2023/09/23 04:37:17;;;;;;;46.57;25.30;;;;;;;12.57;100.00;100127.56;5020184;28;20172;-79
2023/09/23 04:39:42;;;;;;;48.43;24.07;;;;;;;12.36;100.00;100125.69;5023536;28;20017;-79
2023/09/23 04:42:09;;;;;;;42.10;22.80;;;;;;;12.40;100.00;100137.69;5020423;28;20034;-79
2023/09/23 04:44:34;;;;;;;36.30;21.70;;;;;;;12.40;100.00;100135.03;5022769;28;20029;-79
2023/09/23 04:47:00;;;;;;;44.07;23.97;;;;;;;12.49;100.00;100152.63;5006505;28;20408;-80
2023/09/23 04:49:27;;;;;;;39.70;21.67;;;;;;;12.46;100.00;100148.47;5023757;28;20033;-80
2023/09/23 04:51:52;;;;;;;42.00;22.80;;;;;;;12.41;100.00;100148.22;5025401;28;20037;-79
2023/09/23 04:54:17;;;;;;;40.67;22.03;;;;;;;12.45;100.00;100149.50;5022393;28;20027;-79
2023/09/23 04:56:43;;;;;;;39.50;22.47;;;;;;;12.49;100.00;100152.63;5040333;28;20366;-81
2023/09/23 04:59:08;;;;;;;39.43;21.63;;;;;;;12.52;100.00;100160.28;5028643;28;20412;-80
2023/09/23 05:01:34;;;;;;;41.50;22.67;;;;;;;12.48;100.00;100163.50;5017627;28;20383;-80
2023/09/23 05:04:00;;;;;;;39.97;22.67;;;;;;;12.45;100.00;100170.06;5028061;28;20033;-80
2023/09/23 05:06:25;;;;;;;43.83;22.73;;;;;;;12.46;100.00;100177.09;5026424;28;20041;-80
2023/09/23 05:08:51;;;;;;;61.57;25.73;;;;;;;12.45;100.00;100175.44;5026435;28;20125;-80
2023/09/23 05:11:17;;;;;;;42.73;22.73;;;;;;;12.39;100.00;100181.56;5026640;28;20291;-79
2023/09/23 05:13:42;;;;;;;72.07;27.23;;;;;;;12.31;100.00;100176.31;5026102;28;20036;-79
2023/09/23 05:16:08;;;;;;;59.63;25.53;;;;;;;12.29;100.00;100176.50;5023613;28;20021;-79
2023/09/23 05:18:35;;;;;;;56.70;27.08;;;;;;;12.31;100.00;100189.69;5022721;28;20229;-79
2023/09/23 05:21:01;;;;;;;72.63;28.27;;;;;;;12.31;100.00;100189.69;5027318;28;20025;-78
2023/09/23 05:23:26;;;;;;;60.07;27.03;;;;;;;12.40;100.00;100186.69;5031085;28;20025;-79
2023/09/23 05:25:57;;;;;;;50.35;25.42;;;;;;;12.43;100.00;100185.50;5024915;28;20029;-79
2023/09/23 05:28:23;;;;;;;47.53;24.13;;;;;;;12.51;100.00;100188.06;5020878;28;20046;-79
2023/09/23 05:30:48;;;;;;;74.53;29.30;;;;;;;12.47;100.00;100176.06;5007933;28;20033;-80
2023/09/23 05:33:14;;;;;;;50.40;25.73;;;;;;;12.50;100.00;100178.38;5026376;28;20042;-79
2023/09/23 05:35:40;;;;;;;48.08;26.40;;;;;;;12.50;100.00;100183.72;5026085;28;20118;-79
2023/09/23 05:38:05;;;;;;;43.72;24.85;;;;;;;12.56;100.00;100187.50;5010509;28;20696;-79
2023/09/23 05:40:30;;;;;;;45.70;24.13;;;;;;;12.48;100.00;100188.47;5022262;28;20542;-79
2023/09/23 05:42:56;;;;;;;44.37;23.30;;;;;;;12.58;100.00;100205.03;5022939;28;20892;-79
2023/09/23 05:45:24;;;;;;;41.83;23.43;;;;;;;12.48;100.00;100191.13;5008586;28;20079;-78
2023/09/23 05:47:52;;;;;;;40.40;21.88;;;;;;;12.60;100.00;100202.19;5076620;23;20052;-80
2023/09/23 05:50:20;;;;;;;51.40;22.48;;;;;;;12.65;100.00;100211.31;5066013;28;20032;-80
2023/09/23 05:52:46;;;;;;;36.40;18.95;;;;;;;12.73;100.00;100218.38;5062197;28;20394;-79
2023/09/23 05:55:12;;;;;;;40.55;22.27;;;;;;;12.76;100.00;100222.53;5064341;28;20046;-80
2023/09/23 05:57:40;;;;;;;31.20;17.90;;;;;;;12.68;100.00;100224.31;5040077;28;20037;-80
2023/09/23 06:00:11;;;;;;;35.08;19.02;;;;;;;12.54;100.00;100238.56;5064138;28;20612;-83
2023/09/23 06:02:37;;;;;;;35.45;18.95;;;;;;;12.52;100.00;100239.78;5037757;28;20028;-83
2023/09/23 06:05:03;;;;;;;43.42;21.00;;;;;;;12.54;100.00;100254.63;5067107;28;20024;-83
2023/09/23 06:07:29;;;;;;;37.72;20.15;;;;;;;12.52;100.00;100253.97;5046952;28;20040;-84
2023/09/23 06:09:55;;;;;;;40.35;21.33;;;;;;;12.38;100.00;100249.47;5040355;28;20028;-82
2023/09/23 06:12:21;;;;;;;24.23;15.80;;;;;;;12.42;100.00;100250.78;5043658;28;20028;-84
2023/09/23 06:14:46;;;;;;;27.25;17.50;;;;;;;12.47;100.00;100248.38;5055485;28;20752;-81
2023/09/23 06:17:12;;;;;;;29.70;16.20;;;;;;;12.48;100.00;100249.19;5053118;28;20487;-82
2023/09/23 06:19:38;;;;;;;31.27;17.60;;;;;;;12.62;100.00;100251.88;5055611;28;20028;-83
2023/09/23 06:22:03;;;;;;;29.80;17.87;;;;;;;12.46;100.00;100249.41;5055656;28;20056;-83
2023/09/23 06:24:28;;;;;;;31.87;18.37;;;;;;;12.49;100.00;100258.91;5064655;28;20035;-83
2023/09/23 06:26:54;;;;;;;29.20;18.03;;;;;;;12.64;100.00;100263.22;5037573;28;20482;-83
2023/09/23 06:29:20;;;;;;;24.35;15.63;;;;;;;12.56;100.00;100265.16;5065435;28;20032;-83
2023/09/23 06:31:45;;;;;;;22.60;15.50;;;;;;;12.51;100.00;100267.56;5040081;28;20063;-85
2023/09/23 06:34:10;;;;;;;22.23;13.30;;;;;;;12.63;100.00;100266.91;5046264;28;21226;-83
2023/09/23 06:36:36;;;;;;;22.03;13.73;;;;;;;12.87;100.00;100268.41;5044125;28;20090;-81
2023/09/23 06:39:02;;;;;;;12.13;8.67;;;;;;;13.31;100.00;100269.31;5051103;22;20562;-81
2023/09/23 06:41:28;;;;;;;11.90;6.57;;;;;;;13.27;100.00;100243.88;5062196;28;20037;-79
2023/09/23 06:44:18;;;;;;;12.43;8.13;;;;;;;13.19;100.00;100227.94;5047361;28;20052;-77
2023/09/23 06:46:52;;;;;;;11.32;8.98;;;;;;;13.72;100.00;100239.94;5060253;28;20040;-78
2023/09/23 06:49:18;;;;;;;10.70;8.13;;;;;;;13.87;100.00;100231.78;5058322;28;20641;-78
2023/09/23 06:51:43;;;;;;;13.30;9.13;;;;;;;13.46;100.00;100218.28;5065986;28;20028;-77
2023/09/23 06:54:09;;;;;;;10.05;7.05;;;;;;;13.46;100.00;100223.63;5062022;28;20032;-79
2023/09/23 06:56:37;;;;;;;11.53;8.43;;;;;;;13.38;100.00;100229.16;5065633;28;20116;-77
2023/09/23 06:59:03;;;;;;;12.27;7.53;;;;;;;13.25;100.00;100232.50;5064253;28;20025;-77
2023/09/23 07:01:28;;;;;;;10.98;8.27;;;;;;;13.30;100.00;100256.94;5047166;28;20098;-77
2023/09/23 07:03:54;;;;;;;11.93;8.23;;;;;;;13.46;100.00;100270.06;5060034;28;20455;-78
2023/09/23 07:06:19;;;;;;;13.10;8.57;;;;;;;12.99;100.00;100247.31;5061271;28;20523;-78
2023/09/23 07:08:44;;;;;;;14.50;9.73;;;;;;;12.96;100.00;100254.91;5066744;28;20086;-76
2023/09/23 07:11:14;;;;;;;13.47;10.03;;;;;;;12.86;100.00;100260.56;5060797;28;20087;-76
2023/09/23 07:13:39;;;;;;;16.00;10.43;;;;;;;12.93;100.00;100276.72;5062101;28;20032;-77
2023/09/23 07:16:05;;;;;;;19.43;13.47;;;;;;;12.90;100.00;100285.97;5065890;28;20038;-77
2023/09/23 07:18:30;;;;;;;17.37;11.23;;;;;;;12.96;100.00;100298.59;5060193;28;20271;-76
2023/09/23 07:20:56;;;;;;;22.90;14.07;;;;;;;12.79;100.00;100306.03;5049369;28;20040;-77
2023/09/23 07:23:22;;;;;;;;;;;;;;;12.75;100.00;100310.09;5067632;28;20478;-76
2023/09/23 07:25:47;;;;;;;;;;;;;;;12.78;100.00;100333.00;5044694;28;19913;-77
2023/09/23 07:28:12;;;;;;;25.87;15.13;;;;;;;12.83;100.00;100341.31;5080175;28;19947;-76
2023/09/23 07:30:38;;;;;;;29.47;18.10;;;;;;;12.70;100.00;100322.41;5050077;28;20071;-77
2023/09/23 07:33:03;;;;;;;24.33;17.00;;;;;;;13.10;100.00;100348.66;5050513;28;20483;-80
2023/09/23 07:35:33;;;;;;;24.67;16.35;;;;;;;12.79;100.00;100338.19;5061074;28;20895;-78
2023/09/23 07:37:59;;;;;;;26.30;17.05;;;;;;;12.89;100.00;100345.91;5077995;28;20029;-78
2023/09/23 07:40:28;;;;;;;26.63;18.08;;;;;;;12.94;100.00;100354.22;5067091;28;20112;-78
2023/09/23 07:42:54;;;;;;;24.38;17.08;;;;;;;13.35;100.00;100372.47;5055802;28;20036;-78
2023/09/23 07:45:20;;;;;;;15.50;11.48;;;;;;;14.01;100.00;100356.16;5064580;28;20528;-76
2023/09/23 07:47:45;;;;;;;14.77;11.45;;;;;;;14.76;100.00;100326.91;5081347;28;20024;-76
2023/09/23 07:50:11;;;;;;;15.67;11.53;;;;;;;14.49;100.00;100299.03;5064854;28;20048;-77
2023/09/23 07:52:37;;;;;;;15.77;11.90;;;;;;;14.24;100.00;100291.47;5060458;28;20036;-76
2023/09/23 07:55:04;;;;;;;12.52;9.88;;;;;;;13.69;100.00;100266.31;5059322;28;20471;-76
2023/09/23 07:57:30;;;;;;;13.77;10.52;;;;;;;13.39;100.00;100276.38;5067967;28;20052;-76
2023/09/23 07:59:55;;;;;;;14.25;10.23;;;;;;;13.31;100.00;100290.75;5076852;28;20123;-75
2023/09/23 08:02:21;;;;;;;14.53;9.73;;;;;;;13.42;100.00;100310.88;5068133;28;20028;-76
2023/09/23 08:04:46;;;;;;;12.77;9.80;;;;;;;13.24;100.00;100308.59;5069780;28;20127;-76
2023/09/23 08:07:11;;;;;;;12.63;8.97;;;;;;;14.04;100.00;100350.41;5075642;28;20035;-77
2023/09/23 08:09:37;;;;;;;11.07;8.03;;;;;;;14.25;100.00;100325.34;5064137;28;20030;-76
2023/09/23 08:12:03;;;;;;;10.30;7.47;;;;;;;14.56;100.00;100316.91;5067243;28;20485;-76
2023/09/23 08:14:28;;;;;;;9.65;7.47;;;;;;;14.95;100.00;100293.06;5083175;28;20042;-75
2023/09/23 08:16:54;;;;;;;10.83;7.30;;;;;;;14.93;100.00;100252.13;5067335;28;20471;-76
2023/09/23 08:19:19;;;;;;;9.13;7.40;;;;;;;14.73;100.00;100244.84;5068631;28;20020;-76
2023/09/23 08:21:45;;;;;;;9.30;6.20;;;;;;;14.63;100.00;100249.75;5070005;28;20467;-77
2023/09/23 08:24:11;;;;;;;11.20;6.65;;;;;;;14.25;100.00;100226.00;5074747;28;20048;-75
2023/09/23 08:26:37;;;;;;;8.68;6.47;;;;;;;13.92;100.00;100250.81;5059474;28;20094;-75
2023/09/23 08:29:02;;;;;;;7.75;6.32;;;;;;;13.82;100.00;100287.06;5068496;28;20464;-75
2023/09/23 08:31:28;;;;;;;10.67;5.53;;;;;;;13.66;100.00;100299.72;5067116;28;20124;-76
2023/09/23 08:33:54;;;;;;;13.27;6.50;;;;;;;13.56;100.00;100312.66;5067374;28;20039;-76
2023/09/23 08:36:20;;;;;;;9.30;5.82;;;;;;;13.71;100.00;100337.53;5063070;28;20051;-75
2023/09/23 08:38:45;;;;;;;7.10;5.97;;;;;;;13.76;100.00;100342.31;5063475;28;20029;-76
2023/09/23 08:41:15;;;;;;;7.60;5.03;;;;;;;13.84;100.00;100344.88;5047738;28;20091;-77
2023/09/23 08:43:42;;;;;;;8.85;6.47;;;;;;;13.99;100.00;100352.00;5055782;28;20029;-79
2023/09/23 08:46:11;;;;;;;6.22;5.32;;;;;;;14.69;100.00;100371.72;5059435;28;20429;-78
2023/09/23 08:48:38;;;;;;;10.32;4.40;;;;;;;15.18;100.00;100323.13;5059147;28;20051;-78
2023/09/23 08:51:06;;;;;;;4.90;4.05;;;;;;;15.29;100.00;100277.81;5062009;28;20118;-79
2023/09/23 08:53:37;;;;;;;6.50;3.75;;;;;;;16.40;100.00;100242.97;5067904;28;20041;-78
2023/09/23 08:56:04;;;;;;;4.22;3.30;;;;;;;15.76;100.00;100083.09;5071453;28;20498;-75
2023/09/23 08:58:30;;;;;;;6.07;4.20;;;;;;;15.12;100.00;100090.00;5057207;28;20578;-76
2023/09/23 09:00:56;;;;;;;4.15;3.47;;;;;;;16.27;100.00;100175.66;5067713;28;20048;-76
2023/09/23 09:03:22;;;;;;;3.45;2.88;;;;;;;16.81;100.00;100128.56;5054424;28;20167;-77
2023/09/23 09:05:48;;;;;;;3.80;3.42;;;;;;;16.73;100.00;99980.53;5066817;28;20032;-76
2023/09/23 09:08:14;;;;;;;4.22;3.05;;;;;;;16.46;100.00;99902.66;5067224;28;20467;-76
2023/09/23 09:10:40;;;;;;;4.88;2.97;;;;;;;17.01;100.00;99922.63;5067520;28;20036;-77
2023/09/23 09:13:06;;;;;;;4.90;2.40;;;;;;;17.66;100.00;99849.97;5067296;28;20017;-76
2023/09/23 09:15:35;;;;;;;3.45;2.25;;;;;;;17.81;100.00;99848.75;5067483;28;20040;-76
2023/09/23 09:18:02;;;;;;;2.88;2.08;;;;;;;17.58;100.00;99799.00;5056621;28;20056;-76
2023/09/23 09:20:27;;;;;;;;;;;;;;;18.31;100.00;99780.78;5068346;28;20119;-76
2023/09/23 09:22:53;;;;;;;6.72;2.05;;;;;;;18.35;100.00;99549.56;5067617;28;20018;-76
2023/09/23 09:25:20;;;;;;;2.33;1.60;;;;;;;18.18;100.00;99525.22;5066173;28;20055;-77
2023/09/23 09:27:45;;;;;;;4.65;1.88;;;;;;;17.88;100.00;99631.56;5066708;28;20251;-78
2023/09/23 09:30:11;;;;;;;2.90;2.20;;;;;;;17.11;100.00;99698.28;5068110;28;20124;-77
2023/09/23 09:32:40;;;;;;;2.30;1.03;;;;;;;16.71;100.00;99667.28;5036950;28;20091;-77
2023/09/23 09:35:11;;;;;;;2.08;1.00;;;;;;;16.83;100.00;99810.22;5055390;28;20118;-77
2023/09/23 09:37:41;;;;;;;1.35;1.08;;;;;;;17.58;100.00;99822.47;5064497;28;20028;-77
2023/09/23 09:40:10;;;;;;;1.17;1.02;;;;;;;17.02;100.00;99603.41;5067253;28;20021;-77
2023/09/23 09:42:39;;;;;;;2.35;0.93;;;;;;;16.38;100.00;99581.56;5066632;28;20495;-78
2023/09/23 09:45:08;;;;;;;1.83;0.80;;;;;;;16.67;100.00;99804.38;5067103;28;20758;-78
2023/09/23 09:47:34;;;;;;;3.80;1.55;;;;;;;17.88;100.00;99828.69;5067113;28;20032;-77
2023/09/23 09:50:03;;;;;;;;;;;;;;;18.21;100.00;99605.78;5078752;28;20052;-77
2023/09/23 09:52:29;;;;;;;1.63;0.65;;;;;;;18.18;100.00;99435.28;5065197;28;19924;-77
2023/09/23 09:54:57;;;;;;;0.80;0.40;;;;;;;19.29;100.00;99364.13;5064140;28;20024;-77
2023/09/23 09:57:25;;;;;;;0.90;0.60;;;;;;;19.27;100.00;99093.03;5055733;28;20116;-77
2023/09/23 09:59:53;;;;;;;1.25;0.47;;;;;;;18.82;100.00;98872.59;5049067;28;20024;-77
2023/09/23 10:02:26;;;;;;;1.27;0.82;;;;;;;19.04;100.00;99051.75;5033013;28;20032;-79
2023/09/23 10:05:02;;;;;;;2.10;0.60;;;;;;;18.63;100.00;99145.16;5042568;28;20037;-78
2023/09/23 10:07:48;;;;;;;0.65;0.40;;;;;;;19.68;100.00;99201.59;5063576;28;20038;-77
2023/09/23 10:10:14;;;;;;;0.68;0.47;;;;;;;19.10;100.00;98920.06;5038994;28;20049;-79
2023/09/23 10:12:48;;;;;;;1.23;0.57;;;;;;;20.22;100.00;99302.47;5046182;28;20032;-78
2023/09/23 10:15:24;;;;;;;1.35;0.68;;;;;;;20.93;100.00;98924.19;5048698;28;20059;-79
2023/09/23 10:17:54;;;;;;;1.52;0.68;;;;;;;21.62;100.00;99196.06;5041865;28;20033;-78
2023/09/23 10:20:23;;;;;;;5.78;0.73;;;;;;;21.90;100.00;98806.97;5041601;28;20041;-79
2023/09/23 10:22:54;;;;;;;1.10;0.60;;;;;;;21.26;100.00;98731.97;5050079;28;20032;-78
2023/09/23 10:25:20;;;;;;;0.68;0.32;;;;;;;21.78;100.00;98944.25;5043716;28;20679;-77
2023/09/23 10:28:00;;;;;;;2.13;0.65;;;;;;;22.49;96.38;98777.09;5038848;28;20029;-78
2023/09/23 10:30:26;;;;;;;0.95;0.38;;;;;;;22.94;90.48;98521.91;5036936;28;20045;-78
2023/09/23 10:32:51;;;;;;;0.70;0.55;;;;;;;22.27;90.78;98494.97;5056928;28;20141;-77
2023/09/23 10:35:23;;;;;;;2.67;0.60;;;;;;;22.91;89.01;98595.94;5037203;28;20483;-78
2023/09/23 10:37:49;;;;;;;1.50;0.55;;;;;;;23.10;88.55;98735.56;5038706;28;20395;-78
2023/09/23 10:40:17;;;;;;;1.10;0.50;;;;;;;22.92;87.20;98643.81;5039121;28;20041;-78
2023/09/23 10:42:45;;;;;;;0.70;0.40;;;;;;;23.03;81.99;98258.13;5044445;28;20033;-80
2023/09/23 10:45:12;;;;;;;1.65;0.63;;;;;;;22.85;80.07;98183.66;5042061;28;20056;-80
2023/09/23 10:47:38;;;;;;;2.33;0.80;;;;;;;22.79;78.98;98184.88;5043782;28;20016;-78
2023/09/23 10:50:08;;;;;;;0.67;0.67;;;;;;;23.22;78.13;98255.25;5038636;28;20025;-79
2023/09/23 10:52:34;;;;;;;1.05;0.60;;;;;;;22.80;76.94;98056.72;5044605;28;20463;-79
2023/09/23 10:54:59;;;;;;;2.40;0.68;;;;;;;23.69;77.39;98495.50;5036380;28;20014;-78
2023/09/23 10:57:27;;;;;;;0.93;0.40;;;;;;;23.66;74.64;98142.03;5038938;28;20047;-78
2023/09/23 10:59:53;;;;;;;1.45;0.70;;;;;;;23.14;76.25;98308.50;5027442;28;20392;-80
2023/09/23 11:02:20;;;;;;;2.25;0.80;;;;;;;22.19;76.24;98088.75;5037929;28;20033;-81
2023/09/23 11:04:47;;;;;;;0.77;0.52;;;;;;;22.52;76.27;98208.25;5041213;28;20055;-78
2023/09/23 11:07:13;;;;;;;0.88;0.52;;;;;;;22.71;75.06;98173.63;5038825;28;20025;-78
2023/09/23 11:09:38;;;;;;;3.35;0.50;;;;;;;22.27;77.61;98422.38;5040321;28;20148;-79
2023/09/23 11:12:10;;;;;;;2.90;0.50;;;;;;;22.49;75.01;98160.75;5040226;28;20115;-79
2023/09/23 11:14:35;;;;;;;1.13;0.60;;;;;;;22.97;75.65;98431.53;5043454;28;20485;-78
2023/09/23 11:17:01;;;;;;;3.30;0.75;;;;;;;23.16;74.52;98406.97;5036959;28;20027;-79